Time;durP1;ratioP1;P1;durP2;ratioP2;P2;SDS_P1;SDS_P2;PMS_P1;PMS_P2;Temp;Humidity;BMP_temperature;BMP_pressure;BME280_temperature;BME280_humidity;BME280_pressure;Samples;Min_cycle;Max_cycle;Signal;HPM_P1;HPM_P2
2024/04/06 00:00:16;;;;;;;6.72;3.58;;;;;;;12.24;84.23;100478.63;1755878;82;21193;-75
2024/04/06 00:02:45;;;;;;;6.62;3.60;;;;;;;12.23;84.40;100479.69;1755704;82;21126;-76
2024/04/06 00:05:14;;;;;;;11.33;4.25;;;;;;;12.23;84.49;100476.94;1755896;82;21134;-76
2024/04/06 00:07:43;;;;;;;8.08;4.30;;;;;;;12.19;84.48;100482.00;1755929;82;21129;-77
2024/04/06 00:10:11;;;;;;;5.60;3.20;;;;;;;12.16;84.49;100479.67;1755888;82;21169;-76
2024/04/06 00:12:41;;;;;;;11.22;3.77;;;;;;;12.12;84.57;100484.41;1755758;82;21592;-75
2024/04/06 00:15:09;;;;;;;7.97;3.37;;;;;;;12.10;84.71;100480.48;1755675;82;21153;-77
2024/04/06 00:17:39;;;;;;;7.03;3.00;;;;;;;12.07;84.83;100490.52;1755823;82;21161;-76
2024/04/06 00:20:09;;;;;;;6.85;3.50;;;;;;;12.00;84.73;100495.13;1755960;82;21212;-74
2024/04/06 00:22:37;;;;;;;5.03;2.65;;;;;;;11.89;84.88;100490.23;1755754;82;21141;-76
2024/04/06 00:25:06;;;;;;;3.70;2.33;;;;;;;11.81;85.19;100495.89;1756028;82;21130;-76
2024/04/06 00:27:35;;;;;;;3.37;2.25;;;;;;;11.73;85.91;100495.50;1755856;82;21173;-76
2024/04/06 00:30:05;;;;;;;4.10;2.55;;;;;;;11.69;86.31;100490.91;1755720;82;21590;-77
2024/04/06 00:32:34;;;;;;;4.20;2.75;;;;;;;11.66;86.98;100492.69;1755884;82;21141;-77
2024/04/06 00:35:02;;;;;;;4.72;2.62;;;;;;;11.66;87.24;100494.06;1756006;82;21130;-75
2024/04/06 00:37:31;;;;;;;4.80;2.45;;;;;;;11.64;87.60;100492.56;1755693;82;21133;-74
2024/04/06 00:40:00;;;;;;;5.25;2.55;;;;;;;11.62;87.99;100494.14;1764361;80;21141;-76
2024/04/06 00:42:29;;;;;;;4.35;2.33;;;;;;;11.62;88.23;100494.14;1773735;81;21139;-77
2024/04/06 00:44:57;;;;;;;5.50;2.75;;;;;;;11.61;88.50;100492.45;1773367;81;21588;-76
2024/04/06 00:47:27;;;;;;;3.87;2.37;;;;;;;11.60;88.70;100494.87;1773641;81;21080;-69
2024/04/06 00:49:56;;;;;;;5.53;2.50;;;;;;;11.59;88.76;100495.92;1773364;81;21530;-78
2024/04/06 00:52:24;;;;;;;5.95;2.60;;;;;;;11.59;88.98;100490.43;1773368;81;21082;-76
2024/04/06 00:54:52;;;;;;;5.03;2.10;;;;;;;11.60;89.14;100498.14;1773622;81;21114;-76
2024/04/06 00:57:22;;;;;;;3.02;2.27;;;;;;;11.60;89.29;100504.47;1773822;81;21091;-76
2024/04/06 00:59:50;;;;;;;5.75;2.40;;;;;;;11.61;89.46;100503.95;1773341;81;21114;-77
2024/04/06 01:02:19;;;;;;;7.87;2.33;;;;;;;11.61;89.62;100506.17;1773795;81;21079;-75
2024/04/06 01:04:48;;;;;;;4.33;2.15;;;;;;;11.60;89.67;100503.10;1773853;81;21177;-77
2024/04/06 01:07:16;;;;;;;4.00;2.20;;;;;;;11.61;89.75;100502.58;1773581;81;21091;-76
2024/04/06 01:09:45;;;;;;;5.22;2.42;;;;;;;11.63;89.68;100502.70;1773590;81;21074;-77
2024/04/06 01:12:14;;;;;;;3.20;2.00;;;;;;;11.64;89.67;100504.39;1773597;81;21119;-76
2024/04/06 01:14:42;;;;;;;4.28;2.00;;;;;;;11.64;89.54;100490.67;1773812;81;21099;-77
2024/04/06 01:17:10;;;;;;;4.03;2.20;;;;;;;11.63;89.44;100497.20;1773332;81;21134;-78
2024/04/06 01:19:39;;;;;;;4.12;2.15;;;;;;;11.63;89.50;100499.11;1773693;81;21118;-78
2024/04/06 01:22:08;;;;;;;3.98;2.12;;;;;;;11.64;89.48;100502.17;1773746;81;21135;-77
2024/04/06 01:24:36;;;;;;;3.47;1.90;;;;;;;11.64;89.35;100496.69;1773838;81;21079;-78
2024/04/06 01:27:05;;;;;;;2.95;1.90;;;;;;;11.63;89.35;100493.09;1773764;80;21080;-75
2024/04/06 01:29:34;;;;;;;4.00;2.00;;;;;;;11.63;89.26;100494.47;1773780;81;21079;-78
2024/04/06 01:32:06;;;;;;;2.85;1.90;;;;;;;11.62;89.23;100493.30;1773505;81;21079;-78
2024/04/06 01:34:34;;;;;;;7.00;2.70;;;;;;;11.62;89.19;100484.53;1773848;81;21095;-77
2024/04/06 01:37:06;;;;;;;9.00;2.80;;;;;;;11.64;89.05;100484.34;1773915;81;21154;-77
2024/04/06 01:39:35;;;;;;;5.05;2.27;;;;;;;11.60;88.86;100473.44;1773724;80;21091;-78
2024/04/06 01:42:05;;;;;;;5.60;2.58;;;;;;;11.57;88.76;100474.69;1774017;81;21095;-77
2024/04/06 01:44:33;;;;;;;6.50;2.62;;;;;;;11.54;88.76;100475.09;1773878;81;21099;-78
2024/04/06 01:47:02;;;;;;;4.72;2.35;;;;;;;11.49;88.75;100473.48;1773883;81;21142;-77
2024/04/06 01:49:30;;;;;;;5.20;2.67;;;;;;;11.44;88.75;100471.34;1773806;80;21570;-77
2024/04/06 01:51:59;;;;;;;5.35;2.50;;;;;;;11.40;88.90;100474.17;1773636;81;21094;-77
2024/04/06 01:54:28;;;;;;;4.72;2.62;;;;;;;11.37;89.01;100469.61;1773743;81;21102;-77
2024/04/06 01:56:58;;;;;;;4.05;2.35;;;;;;;11.33;89.06;100469.16;1773919;81;21082;-76
2024/04/06 01:59:26;;;;;;;7.20;2.83;;;;;;;11.30;89.20;100469.56;1773698;81;21146;-76
2024/04/06 02:01:55;;;;;;;5.15;2.83;;;;;;;11.24;89.35;100475.85;1750393;81;21174;-77
2024/04/06 02:04:24;;;;;;;5.37;2.65;;;;;;;11.19;89.49;100474.23;1773698;81;21086;-77
2024/04/06 02:06:53;;;;;;;3.90;2.40;;;;;;;11.17;89.74;100472.74;1773721;81;21103;-76
2024/04/06 02:09:22;;;;;;;3.35;2.35;;;;;;;11.15;89.98;100466.09;1773720;80;21122;-77
2024/04/06 02:11:50;;;;;;;4.87;2.77;;;;;;;11.14;89.99;100477.25;1773503;81;21544;-78
2024/04/06 02:14:19;;;;;;;8.60;3.30;;;;;;;11.11;90.03;100482.09;1773667;81;21086;-77
2024/04/06 02:16:47;;;;;;;6.03;3.15;;;;;;;11.07;89.93;100482.16;1773722;81;21107;-77
2024/04/06 02:19:16;;;;;;;8.60;2.80;;;;;;;10.98;89.77;100480.58;1773627;81;21122;-75
2024/04/06 02:21:45;;;;;;;3.40;2.62;;;;;;;10.92;89.83;100481.37;1773822;81;21098;-77
2024/04/06 02:24:17;;;;;;;5.15;2.92;;;;;;;10.86;89.95;100480.80;1773884;81;21090;-76
2024/04/06 02:26:44;;;;;;;7.10;3.05;;;;;;;10.81;90.03;100484.66;1773857;81;21111;-77
2024/04/06 02:29:12;;;;;;;5.47;2.72;;;;;;;10.77;90.21;100486.94;1773660;81;21118;-78
2024/04/06 02:31:41;;;;;;;4.97;2.67;;;;;;;10.74;90.30;100478.27;1750162;81;21154;-78
2024/04/06 02:34:10;;;;;;;5.15;3.33;;;;;;;10.73;90.63;100476.05;1773793;81;21091;-76
2024/04/06 02:36:39;;;;;;;5.47;3.47;;;;;;;10.72;90.84;100483.09;1773663;81;21125;-78
2024/04/06 02:39:10;;;;;;;5.30;3.47;;;;;;;10.70;91.05;100484.66;1773930;81;21293;-77
2024/04/06 02:41:38;;;;;;;8.73;3.95;;;;;;;10.71;91.06;100485.52;1757709;80;21662;-77
2024/04/06 02:44:07;;;;;;;6.17;2.92;;;;;;;10.69;91.11;100488.97;1755930;80;21196;-77
2024/04/06 02:46:36;;;;;;;5.03;3.15;;;;;;;10.66;91.27;100487.99;1755714;82;21607;-76
2024/04/06 02:49:04;;;;;;;5.33;3.05;;;;;;;10.65;91.61;100491.25;1755926;81;21158;-76
2024/04/06 02:51:32;;;;;;;5.47;3.20;;;;;;;10.65;91.81;100488.52;1724503;80;21169;-77
2024/04/06 02:54:02;;;;;;;5.92;3.00;;;;;;;10.67;91.91;100489.69;1755968;82;21614;-77
2024/04/06 02:56:31;;;;;;;5.45;3.00;;;;;;;10.68;92.00;100491.39;1755766;82;21650;-77
2024/04/06 02:58:59;;;;;;;4.15;2.83;;;;;;;10.72;92.13;100494.06;1755670;80;21161;-77
2024/04/06 03:01:27;;;;;;;4.65;3.00;;;;;;;10.74;92.20;100489.23;1724464;82;21141;-76
2024/04/06 03:03:56;;;;;;;5.78;2.83;;;;;;;10.73;92.29;100485.64;1724907;82;21157;-76
2024/04/06 03:06:25;;;;;;;6.25;3.45;;;;;;;10.75;92.29;100477.22;1756041;82;21158;-76
2024/04/06 03:08:54;;;;;;;7.17;4.87;;;;;;;10.77;92.24;100476.50;1755930;82;21189;-76
2024/04/06 03:11:22;;;;;;;7.12;3.95;;;;;;;10.77;92.22;100471.02;1755568;82;21142;-77
2024/04/06 03:13:51;;;;;;;7.78;4.42;;;;;;;10.76;92.22;100474.28;1755772;80;21166;-77
2024/04/06 03:16:20;;;;;;;9.38;4.95;;;;;;;10.79;92.05;100478.52;1755891;82;21185;-77
2024/04/06 03:18:49;;;;;;;8.35;5.12;;;;;;;10.79;91.97;100477.16;1755731;82;21138;-74
2024/04/06 03:21:18;;;;;;;7.72;5.28;;;;;;;10.79;91.98;100485.38;1755687;82;21169;-75
2024/04/06 03:23:47;;;;;;;10.68;6.70;;;;;;;10.78;91.79;100487.79;1755673;82;21137;-77
2024/04/06 03:26:16;;;;;;;7.78;6.35;;;;;;;10.74;91.60;100483.23;1755861;82;21196;-77
2024/04/06 03:28:44;;;;;;;8.45;5.95;;;;;;;10.71;91.63;100489.10;1755842;82;21110;-76
2024/04/06 03:31:15;;;;;;;9.50;6.40;;;;;;;10.67;91.56;100484.20;1755785;82;21130;-75
2024/04/06 03:33:43;;;;;;;9.28;5.47;;;;;;;10.63;91.64;100483.75;1755741;82;21114;-75
2024/04/06 03:36:11;;;;;;;9.08;5.35;;;;;;;10.60;91.74;100475.08;1755920;82;21118;-75
2024/04/06 03:38:40;;;;;;;7.05;4.10;;;;;;;10.59;91.80;100474.75;1755830;82;21169;-76
2024/04/06 03:41:09;;;;;;;7.78;4.00;;;;;;;10.55;91.73;100477.56;1732648;80;21142;-76
2024/04/06 03:43:38;;;;;;;8.73;4.17;;;;;;;10.51;91.75;100483.10;1780544;80;21169;-76
2024/04/06 03:46:07;;;;;;;5.22;3.90;;;;;;;10.46;91.89;100479.06;1780441;80;21071;-75
2024/04/06 03:48:36;;;;;;;7.75;4.00;;;;;;;10.43;91.96;100475.86;1781342;80;21102;-76
2024/04/06 03:51:04;;;;;;;7.28;3.75;;;;;;;10.39;92.15;100469.05;1780390;80;21094;-74
2024/04/06 03:53:35;;;;;;;5.28;3.52;;;;;;;10.38;92.32;100468.72;1780997;80;21534;-77
2024/04/06 03:56:05;;;;;;;9.03;4.20;;;;;;;10.36;92.48;100467.54;1780959;80;21541;-75
2024/04/06 03:58:34;;;;;;;7.70;3.95;;;;;;;10.36;92.64;100468.91;1780989;80;21580;-76
2024/04/06 04:01:02;;;;;;;9.93;3.87;;;;;;;10.38;92.90;100463.23;1780091;80;21142;-76
2024/04/06 04:03:30;;;;;;;7.67;4.10;;;;;;;10.41;93.07;100464.25;1781213;80;21094;-76
2024/04/06 04:05:59;;;;;;;6.62;3.75;;;;;;;10.42;93.15;100457.73;1781232;80;21106;-76
2024/04/06 04:08:27;;;;;;;6.83;4.08;;;;;;;10.45;93.32;100455.45;1781124;80;21094;-76
2024/04/06 04:10:56;;;;;;;6.33;3.80;;;;;;;10.50;93.39;100458.12;1781304;80;21107;-77
2024/04/06 04:13:24;;;;;;;5.33;3.70;;;;;;;10.51;93.40;100459.81;1780530;80;21517;-76
2024/04/06 04:15:54;;;;;;;6.95;3.87;;;;;;;10.53;93.44;100457.73;1781187;80;21122;-75
2024/04/06 04:18:24;;;;;;;7.28;3.90;;;;;;;10.52;93.39;100462.88;1781414;80;21115;-76
2024/04/06 04:20:53;;;;;;;8.08;4.10;;;;;;;10.51;93.45;100465.30;1781160;80;21232;-76
2024/04/06 04:23:22;;;;;;;7.42;4.53;;;;;;;10.51;93.57;100470.25;1781163;80;21090;-75
2024/04/06 04:25:52;;;;;;;6.85;4.00;;;;;;;10.54;93.65;100463.01;1781282;80;21106;-76
2024/04/06 04:28:21;;;;;;;6.33;4.47;;;;;;;10.56;93.64;100463.66;1780854;80;21106;-77
2024/04/06 04:30:50;;;;;;;5.30;3.72;;;;;;;10.58;93.59;100463.47;1781505;80;21090;-77
2024/04/06 04:33:18;;;;;;;8.00;3.83;;;;;;;10.62;93.50;100469.73;1781416;80;21616;-76
2024/04/06 04:35:47;;;;;;;7.17;4.17;;;;;;;10.63;93.40;100471.94;1750447;80;21094;-76
2024/04/06 04:38:15;;;;;;;10.23;4.55;;;;;;;10.65;93.38;100469.86;1781506;80;21525;-75
2024/04/06 04:40:44;;;;;;;8.63;4.22;;;;;;;10.68;93.33;100471.68;1780662;80;21237;-75
2024/04/06 04:43:13;;;;;;;7.08;4.25;;;;;;;10.68;93.06;100470.83;1782765;80;21465;-75
2024/04/06 04:45:42;;;;;;;11.38;4.50;;;;;;;10.69;92.98;100473.38;1782549;80;21118;-76
2024/04/06 04:48:11;;;;;;;10.10;6.42;;;;;;;10.72;92.96;100474.87;1782571;80;21126;-77
2024/04/06 04:50:40;;;;;;;8.68;4.70;;;;;;;10.76;92.93;100470.70;1782682;80;21078;-76
2024/04/06 04:53:09;;;;;;;9.63;4.78;;;;;;;10.78;92.76;100468.61;1782425;80;22094;-77
2024/04/06 04:55:38;;;;;;;7.62;4.55;;;;;;;10.79;92.60;100465.66;1782411;80;21114;-77
2024/04/06 04:58:06;;;;;;;7.12;4.45;;;;;;;10.80;92.47;100468.73;1782607;80;21135;-77
2024/04/06 05:00:37;;;;;;;9.20;4.90;;;;;;;10.81;92.37;100465.47;1782372;80;21087;-78
2024/04/06 05:03:05;;;;;;;9.23;4.42;;;;;;;10.83;92.29;100463.38;1782476;80;21327;-77
2024/04/06 05:05:34;;;;;;;9.20;4.65;;;;;;;10.87;92.14;100463.83;1782378;80;21095;-76
2024/04/06 05:08:04;;;;;;;10.90;4.50;;;;;;;10.89;92.01;100462.59;1782547;80;21109;-77
2024/04/06 05:10:32;;;;;;;11.35;4.67;;;;;;;10.91;91.90;100452.27;1782721;80;21137;-77
2024/04/06 05:13:02;;;;;;;13.10;4.67;;;;;;;10.94;91.79;100455.14;1782599;80;21083;-76
2024/04/06 05:15:30;;;;;;;6.40;4.28;;;;;;;10.98;91.67;100460.55;1782398;80;21560;-76
2024/04/06 05:17:59;;;;;;;5.58;4.20;;;;;;;11.01;91.43;100465.11;1782646;80;21099;-77
2024/04/06 05:20:27;;;;;;;8.83;4.37;;;;;;;11.03;91.16;100471.77;1782430;80;21110;-76
2024/04/06 05:22:56;;;;;;;8.28;4.55;;;;;;;11.06;91.00;100464.54;1782593;80;21236;-76
2024/04/06 05:25:25;;;;;;;10.98;4.78;;;;;;;11.09;90.83;100466.36;1782449;80;21148;-77
2024/04/06 05:27:56;;;;;;;10.55;4.50;;;;;;;11.14;90.82;100459.43;1782519;80;21169;-75
2024/04/06 05:30:24;;;;;;;6.87;4.65;;;;;;;11.21;90.74;100471.30;1782604;80;21129;-78
2024/04/06 05:32:52;;;;;;;10.05;4.67;;;;;;;11.27;90.54;100462.27;1782614;80;21561;-75
2024/04/06 05:35:22;;;;;;;9.75;4.58;;;;;;;11.33;90.37;100468.31;1717816;83;21607;-76
2024/04/06 05:37:50;;;;;;;7.22;4.70;;;;;;;11.41;90.20;100473.12;1720146;83;21141;-77
2024/04/06 05:40:19;;;;;;;9.00;5.00;;;;;;;11.49;89.82;100470.74;1720007;83;21094;-77
2024/04/06 05:42:48;;;;;;;13.78;5.03;;;;;;;11.56;89.44;100470.25;1720040;83;21140;-76
2024/04/06 05:45:17;;;;;;;7.22;4.85;;;;;;;11.61;89.05;100466.38;1719882;83;21133;-76
2024/04/06 05:47:45;;;;;;;9.10;4.80;;;;;;;11.65;88.54;100467.66;1720240;83;21129;-77
2024/04/06 05:50:15;;;;;;;8.18;4.87;;;;;;;11.72;88.34;100464.46;1720002;83;21180;-76
2024/04/06 05:52:43;;;;;;;10.15;5.00;;;;;;;11.83;88.06;100467.70;1719803;82;21078;-76
2024/04/06 05:55:11;;;;;;;11.08;5.17;;;;;;;11.90;87.64;100470.80;1719911;83;21201;-76
2024/04/06 05:57:40;;;;;;;9.03;5.20;;;;;;;12.00;87.16;100464.40;1719829;82;21133;-76
2024/04/06 06:00:11;;;;;;;9.45;4.75;;;;;;;12.09;86.78;100465.06;1719895;83;21109;-77
2024/04/06 06:02:39;;;;;;;11.57;5.08;;;;;;;12.15;86.26;100460.12;1719781;82;21144;-74
2024/04/06 06:05:07;;;;;;;10.80;4.50;;;;;;;12.22;85.78;100462.88;1719759;83;21172;-76
2024/04/06 06:07:38;;;;;;;7.33;4.08;;;;;;;12.28;85.22;100464.80;1719623;83;21130;-77
2024/04/06 06:10:08;;;;;;;10.48;4.97;;;;;;;12.31;84.50;100462.48;1719981;83;21109;-76
2024/04/06 06:12:37;;;;;;;10.50;4.65;;;;;;;12.33;83.75;100467.25;1719787;83;21152;-74
2024/04/06 06:15:06;;;;;;;9.18;4.40;;;;;;;12.33;83.17;100456.78;1719861;83;21552;-76
2024/04/06 06:17:35;;;;;;;8.73;3.92;;;;;;;12.33;82.77;100456.78;1719764;83;21105;-77
2024/04/06 06:20:05;;;;;;;13.72;5.05;;;;;;;12.33;82.32;100457.63;1719763;83;21141;-74
2024/04/06 06:22:34;;;;;;;6.83;3.42;;;;;;;12.36;82.15;100455.88;1719903;83;21117;-76
2024/04/06 06:25:04;;;;;;;5.10;4.00;;;;;;;12.38;81.86;100455.14;1720091;83;21188;-75
2024/04/06 06:27:34;;;;;;;7.25;4.17;;;;;;;12.38;81.68;100452.92;1719694;83;21108;-76
2024/04/06 06:30:04;;;;;;;6.15;4.45;;;;;;;12.38;81.58;100448.27;1719752;83;21149;-76
2024/04/06 06:32:32;;;;;;;5.67;3.70;;;;;;;12.41;81.54;100447.53;1719869;83;21138;-77
2024/04/06 06:35:03;;;;;;;6.05;4.10;;;;;;;12.47;81.32;100445.33;1719752;83;21133;-76
2024/04/06 06:37:31;;;;;;;9.08;3.83;;;;;;;12.52;81.11;100445.02;1699803;83;21101;-77
2024/04/06 06:40:03;;;;;;;7.22;3.55;;;;;;;12.58;80.86;100433.70;1719818;83;21097;-76
2024/04/06 06:42:34;;;;;;;7.05;3.65;;;;;;;12.64;80.57;100437.84;1719879;83;21117;-77
2024/04/06 06:45:05;;;;;;;6.35;3.95;;;;;;;12.70;80.19;100437.52;1719754;83;21218;-77
2024/04/06 06:47:33;;;;;;;8.60;3.10;;;;;;;12.76;80.03;100431.18;1719823;83;21614;-79
2024/04/06 06:50:03;;;;;;;4.78;2.55;;;;;;;12.81;79.71;100430.02;1719839;83;21097;-77
2024/04/06 06:52:32;;;;;;;6.55;3.42;;;;;;;12.89;79.21;100422.08;1719873;83;21146;-78
2024/04/06 06:55:01;;;;;;;5.55;2.50;;;;;;;12.94;78.78;100423.13;1719980;83;21590;-78
2024/04/06 06:57:30;;;;;;;7.00;2.75;;;;;;;13.03;78.31;100427.08;1700085;83;21099;-77
2024/04/06 06:59:58;;;;;;;7.47;4.40;;;;;;;13.13;77.87;100425.58;1719993;82;21176;-77
2024/04/06 07:02:29;;;;;;;8.70;2.30;;;;;;;13.26;77.49;100431.62;1719838;83;21180;-79
2024/04/06 07:04:59;;;;;;;7.60;2.37;;;;;;;13.40;76.80;100426.41;1720081;83;21610;-77
2024/04/06 07:07:27;;;;;;;6.47;2.30;;;;;;;13.56;76.11;100423.18;1720246;83;21144;-73
2024/04/06 07:09:55;;;;;;;7.25;2.50;;;;;;;13.73;75.22;100419.98;1719887;82;21177;-78
2024/04/06 07:12:24;;;;;;;4.95;1.87;;;;;;;13.89;74.58;100408.47;1699913;83;21164;-77
2024/04/06 07:14:53;;;;;;;4.30;1.70;;;;;;;14.07;73.60;100398.09;1720014;82;21121;-78
2024/04/06 07:17:21;;;;;;;4.35;1.77;;;;;;;14.22;72.69;100393.97;1719997;83;21168;-77
2024/04/06 07:19:51;;;;;;;5.70;1.95;;;;;;;14.40;71.36;100396.53;1719879;82;21121;-78
2024/04/06 07:22:23;;;;;;;3.08;1.70;;;;;;;14.49;70.38;100396.07;1720177;83;21168;-78
2024/04/06 07:24:52;;;;;;;2.47;1.50;;;;;;;14.55;69.50;100392.95;1719982;83;21105;-80
2024/04/06 07:27:21;;;;;;;4.62;1.85;;;;;;;14.58;68.69;100390.59;1719995;83;21584;-78
2024/04/06 07:29:51;;;;;;;6.83;2.12;;;;;;;14.61;67.81;100389.30;1720142;83;21144;-79
2024/04/06 07:32:19;;;;;;;5.33;1.65;;;;;;;14.64;67.19;100376.97;1720087;83;21630;-79
2024/04/06 07:34:47;;;;;;;8.13;2.10;;;;;;;14.65;66.66;100371.77;1718904;82;21141;-78
2024/04/06 07:37:16;;;;;;;2.90;1.52;;;;;;;14.65;66.57;100372.61;1717597;83;21113;-78
2024/04/06 07:39:45;;;;;;;4.28;1.62;;;;;;;14.65;66.35;100364.88;1717642;83;21101;-79
2024/04/06 07:42:13;;;;;;;5.97;1.90;;;;;;;14.67;65.95;100369.09;1699976;83;21117;-79
2024/04/06 07:44:42;;;;;;;3.35;1.82;;;;;;;14.70;65.63;100362.28;1717912;83;21228;-79
2024/04/06 07:47:10;;;;;;;3.12;1.90;;;;;;;14.74;65.55;100363.52;1717788;83;21168;-78
2024/04/06 07:49:39;;;;;;;6.70;2.72;;;;;;;14.78;65.56;100364.75;1717563;83;21149;-80
2024/04/06 07:52:08;;;;;;;4.20;1.80;;;;;;;14.86;65.58;100357.03;1717632;83;21105;-78
2024/04/06 07:54:37;;;;;;;5.58;1.77;;;;;;;15.13;64.69;100352.66;1699909;83;21101;-79
2024/04/06 07:57:05;;;;;;;9.43;1.90;;;;;;;15.53;63.80;100340.08;1717174;83;21247;-77
2024/04/06 07:59:37;;;;;;;6.53;1.85;;;;;;;16.12;61.99;100347.30;1699676;83;21165;-81
2024/04/06 08:02:12;;;;;;;3.47;1.80;;;;;;;16.73;60.84;100341.47;1712149;83;21155;-75
2024/04/06 08:04:44;;;;;;;4.90;1.80;;;;;;;17.37;58.37;100342.42;1676654;84;21659;-73
2024/04/06 08:07:13;;;;;;;4.90;1.82;;;;;;;17.87;56.80;100337.70;1662912;85;21146;-72
2024/04/06 08:09:42;;;;;;;4.42;2.00;;;;;;;18.37;55.64;100328.67;1712687;83;21202;-72
2024/04/06 08:12:16;;;;;;;4.80;1.90;;;;;;;18.86;53.46;100327.05;1715599;83;21487;-73
2024/04/06 08:14:45;;;;;;;4.25;1.75;;;;;;;19.27;52.10;100318.75;1715646;83;21092;-74
2024/04/06 08:17:15;;;;;;;3.77;1.72;;;;;;;19.67;50.36;100317.66;1698615;83;21481;-70
2024/04/06 08:19:43;;;;;;;4.58;1.85;;;;;;;19.98;48.61;100315.22;1717222;83;21053;-71
2024/04/06 08:22:12;;;;;;;5.40;2.20;;;;;;;20.25;47.34;100310.52;1699369;83;21437;-72
2024/04/06 08:24:41;;;;;;;4.65;1.90;;;;;;;20.55;46.64;100310.83;1717274;82;21485;-72
2024/04/06 08:27:10;;;;;;;3.62;1.75;;;;;;;20.90;45.44;100308.05;1717131;83;21507;-72
2024/04/06 08:29:39;;;;;;;6.28;1.95;;;;;;;21.14;44.07;100309.88;1717278;83;21021;-74
2024/04/06 08:32:08;;;;;;;5.90;2.00;;;;;;;21.35;43.52;100312.25;1717429;83;21610;-72
2024/04/06 08:34:38;;;;;;;6.80;1.92;;;;;;;21.53;43.01;100304.84;1697712;83;21586;-73
2024/04/06 08:37:08;;;;;;;4.87;2.00;;;;;;;21.62;42.30;100305.16;1696445;83;21038;-72
2024/04/06 08:39:36;;;;;;;6.50;1.95;;;;;;;21.64;42.36;100302.38;1724632;83;21119;-74
2024/04/06 08:42:05;;;;;;;5.40;1.75;;;;;;;21.71;40.57;100298.77;1696477;83;21109;-71
2024/04/06 08:44:42;;;;;;;3.67;1.80;;;;;;;21.66;41.09;100297.36;1725025;83;21105;-73
2024/04/06 08:47:19;;;;;;;3.50;1.70;;;;;;;21.69;40.71;100295.42;1689994;84;21062;-73
2024/04/06 08:49:48;;;;;;;2.02;1.50;;;;;;;21.69;40.71;100295.42;1704100;84;21448;-73
2024/04/06 08:52:17;;;;;;;3.37;1.55;;;;;;;21.77;40.64;100280.10;1689782;85;21150;-71
2024/04/06 08:54:46;;;;;;;6.97;2.30;;;;;;;21.76;40.18;100278.42;1704268;84;21423;-72
2024/04/06 08:57:15;;;;;;;4.22;1.62;;;;;;;21.66;40.81;100283.42;1704141;84;21491;-71
2024/04/06 08:59:44;;;;;;;3.50;1.62;;;;;;;21.61;40.38;100282.56;1685820;84;21071;-71
2024/04/06 09:02:13;;;;;;;3.25;1.40;;;;;;;21.51;40.22;100281.97;1690612;83;21060;-72
2024/04/06 09:04:41;;;;;;;4.33;1.65;;;;;;;21.34;39.43;100268.77;1690470;83;21526;-73
2024/04/06 09:07:10;;;;;;;4.45;1.50;;;;;;;20.95;39.64;100276.05;1718685;83;21483;-73
2024/04/06 09:09:39;;;;;;;4.37;1.60;;;;;;;20.68;40.23;100274.73;1671614;85;21081;-71
2024/04/06 09:12:09;;;;;;;3.02;1.72;;;;;;;20.54;41.07;100278.53;1671477;85;21541;-72
2024/04/06 09:14:44;;;;;;;3.15;1.60;;;;;;;20.42;41.37;100270.08;1671513;83;21093;-71
2024/04/06 09:17:14;;;;;;;5.30;1.77;;;;;;;20.35;41.23;100270.81;1690868;85;21445;-72
2024/04/06 09:19:43;;;;;;;3.85;1.67;;;;;;;20.25;41.46;100271.02;1690934;83;21026;-72
2024/04/06 09:22:12;;;;;;;2.47;1.30;;;;;;;20.14;41.02;100269.77;1690846;83;21465;-72
2024/04/06 09:24:40;;;;;;;3.80;1.40;;;;;;;20.01;41.10;100264.08;1691008;85;21089;-72
2024/04/06 09:27:13;;;;;;;4.10;1.72;;;;;;;19.93;41.36;100261.78;1581385;90;21106;-69
2024/04/06 09:29:47;;;;;;;6.00;1.72;;;;;;;19.84;41.31;100259.19;1581161;89;21166;-72
2024/04/06 09:32:18;;;;;;;2.95;1.52;;;;;;;19.75;41.21;100256.03;1592336;88;21077;-74
2024/04/06 09:34:49;;;;;;;2.65;1.32;;;;;;;19.68;41.29;100256.80;1601787;89;21164;-73
2024/04/06 09:37:39;;;;;;;4.28;1.60;;;;;;;19.69;41.16;100256.23;1604997;89;21074;-73
2024/04/06 09:40:11;;;;;;;3.40;1.30;;;;;;;19.68;40.92;100257.34;1605247;88;21489;-72
2024/04/06 09:42:39;;;;;;;3.27;1.35;;;;;;;19.62;41.23;100242.00;1605017;88;21197;-72
2024/04/06 09:45:07;;;;;;;2.92;1.52;;;;;;;19.57;41.16;100241.10;1640250;85;21086;-72
2024/04/06 09:47:36;;;;;;;3.45;1.52;;;;;;;19.46;41.49;100236.46;1687124;85;21050;-71
2024/04/06 09:50:06;;;;;;;4.58;1.55;;;;;;;19.42;41.38;100227.80;1667552;85;21533;-71
2024/04/06 09:52:35;;;;;;;4.08;1.32;;;;;;;19.48;41.60;100215.66;1686947;85;21195;-71
2024/04/06 09:55:06;;;;;;;2.98;1.30;;;;;;;19.58;41.56;100230.27;1686835;85;21069;-72
2024/04/06 09:57:36;;;;;;;3.75;1.55;;;;;;;19.63;41.51;100228.39;1687013;85;21101;-76
2024/04/06 10:00:07;;;;;;;5.83;1.85;;;;;;;19.68;41.24;100223.44;1686871;85;21050;-72
2024/04/06 10:02:36;;;;;;;4.87;1.40;;;;;;;19.75;40.81;100219.89;1686616;85;21073;-72
2024/04/06 10:05:06;;;;;;;4.80;1.62;;;;;;;19.82;41.02;100209.39;1687106;85;21208;-72
2024/04/06 10:07:36;;;;;;;3.17;1.77;;;;;;;19.88;40.89;100220.86;1689056;84;21066;-70
2024/04/06 10:10:07;;;;;;;3.62;1.55;;;;;;;19.89;40.96;100215.58;1701474;83;21011;-73
2024/04/06 10:12:43;;;;;;;5.33;1.60;;;;;;;19.87;40.50;100210.84;1701510;83;21016;-74
2024/04/06 10:15:14;;;;;;;4.97;1.50;;;;;;;19.83;41.02;100218.03;1683697;84;21069;-72
2024/04/06 10:17:47;;;;;;;2.35;1.20;;;;;;;19.82;40.64;100216.34;1683671;85;21085;-74
2024/04/06 10:20:23;;;;;;;3.58;1.50;;;;;;;19.77;40.23;100207.12;1683822;84;21502;-74
2024/04/06 10:22:55;;;;;;;3.50;1.60;;;;;;;19.69;40.68;100204.81;1683708;85;21058;-73
2024/04/06 10:25:37;;;;;;;2.87;1.50;;;;;;;19.62;40.47;100207.25;1683521;84;21099;-72
2024/04/06 10:28:08;;;;;;;3.65;1.40;;;;;;;19.56;40.76;100202.73;1683907;85;21045;-71
2024/04/06 10:30:39;;;;;;;5.58;1.50;;;;;;;19.50;40.52;100203.72;1683846;85;21042;-71
2024/04/06 10:33:09;;;;;;;2.95;1.30;;;;;;;19.45;40.29;100198.11;1683805;85;21053;-74
2024/04/06 10:35:38;;;;;;;5.95;1.90;;;;;;;19.43;40.31;100191.13;1683078;85;21077;-79
2024/04/06 10:38:06;;;;;;;4.08;1.75;;;;;;;19.43;40.07;100192.52;1654928;85;21550;-74
2024/04/06 10:40:37;;;;;;;4.25;1.30;;;;;;;19.42;40.38;100183.90;1681701;84;21493;-73
2024/04/06 10:43:06;;;;;;;5.03;1.35;;;;;;;19.42;39.93;100183.34;1633839;85;21128;-73
2024/04/06 10:45:35;;;;;;;4.03;1.52;;;;;;;19.41;39.84;100176.11;1681506;85;21050;-71
2024/04/06 10:48:07;;;;;;;3.40;1.30;;;;;;;19.42;39.86;100172.78;1681564;84;21481;-72
2024/04/06 10:50:35;;;;;;;2.72;1.40;;;;;;;19.45;39.79;100174.49;1654541;84;21489;-75
2024/04/06 10:53:05;;;;;;;5.25;1.57;;;;;;;19.49;39.41;100170.64;1681713;84;21062;-75
2024/04/06 10:55:34;;;;;;;6.28;2.00;;;;;;;19.56;39.71;100171.33;1695562;82;21096;-72
2024/04/06 10:58:04;;;;;;;4.30;1.40;;;;;;;19.64;39.36;100168.08;1737220;82;21890;-76
2024/04/06 11:00:36;;;;;;;4.10;1.55;;;;;;;19.68;38.58;100166.45;1659765;84;21086;-71
2024/04/06 11:03:07;;;;;;;3.17;1.40;;;;;;;19.69;38.90;100172.30;1698770;84;21110;-71
2024/04/06 11:05:36;;;;;;;4.15;1.95;;;;;;;19.73;39.11;100165.10;1698840;84;21340;-72
2024/04/06 11:08:05;;;;;;;3.05;2.00;;;;;;;19.77;38.98;100157.08;1692864;84;21460;-72
2024/04/06 11:10:34;;;;;;;3.87;1.60;;;;;;;19.76;38.88;100154.84;1672753;83;21059;-72
2024/04/06 11:13:03;;;;;;;3.33;1.65;;;;;;;19.74;39.04;100152.04;1669708;86;21046;-71
2024/04/06 11:15:31;;;;;;;2.77;1.70;;;;;;;19.68;39.48;100144.76;1705973;83;21033;-72
2024/04/06 11:18:02;;;;;;;3.92;1.80;;;;;;;19.65;39.46;100143.89;1706384;84;21096;-72
2024/04/06 11:20:32;;;;;;;7.22;2.10;;;;;;;19.58;39.55;100147.73;1706320;84;21089;-71
2024/04/06 11:23:01;;;;;;;5.55;2.37;;;;;;;19.56;39.92;100137.98;1706164;84;21522;-72
2024/04/06 11:25:30;;;;;;;4.03;2.12;;;;;;;19.57;40.13;100135.48;1706344;83;21068;-71
2024/04/06 11:27:58;;;;;;;2.70;1.50;;;;;;;19.58;40.33;100133.00;1706153;84;21433;-71
2024/04/06 11:30:28;;;;;;;8.85;5.10;;;;;;;19.57;40.14;100132.70;1706221;83;21489;-71
2024/04/06 11:32:57;;;;;;;3.35;1.75;;;;;;;19.51;40.41;100129.56;1706296;84;21052;-72